createdAt,value
2022-07-29T00:00:15.846Z,22.32
2022-07-29T00:01:19.791Z,22.31
2022-07-29T00:02:21.565Z,22.31
2022-07-29T00:03:24.286Z,22.31
2022-07-29T00:04:25.936Z,22.29
2022-07-29T00:05:28.780Z,22.28
2022-07-29T00:06:31.853Z,22.27
2022-07-29T00:07:34.449Z,22.26
2022-07-29T00:08:36.028Z,22.24
2022-07-29T00:09:50.407Z,22.22
2022-07-29T00:10:53.834Z,22.21
2022-07-29T00:11:59.172Z,22.20
2022-07-29T00:13:00.952Z,22.20
2022-07-29T00:14:03.556Z,22.20
2022-07-29T00:15:06.250Z,22.19
2022-07-29T00:16:08.853Z,22.19
2022-07-29T00:17:13.674Z,22.18
2022-07-29T00:18:21.693Z,22.18
2022-07-29T00:19:23.332Z,22.17
2022-07-29T00:20:25.936Z,22.15
2022-07-29T00:21:27.671Z,22.15
2022-07-29T00:22:31.681Z,22.16
2022-07-29T00:23:36.716Z,22.17
2022-07-29T00:24:39.583Z,22.16
2022-07-29T00:25:41.261Z,22.14
2022-07-29T00:26:43.862Z,22.14
2022-07-29T00:27:46.684Z,22.15
2022-07-29T00:28:49.292Z,22.15
2022-07-29T00:29:51.106Z,22.14
2022-07-29T00:30:53.738Z,22.12
2022-07-29T00:31:55.756Z,22.12
2022-07-29T00:32:58.369Z,22.10
2022-07-29T00:34:00.040Z,22.09
2022-07-29T00:35:20.190Z,22.09
2022-07-29T00:36:22.243Z,22.07
2022-07-29T00:37:25.097Z,22.06
2022-07-29T00:38:28.145Z,22.06
2022-07-29T00:39:31.315Z,22.05
2022-07-29T00:40:32.913Z,22.05
2022-07-29T00:41:35.477Z,22.04
2022-07-29T00:42:43.632Z,22.03
2022-07-29T00:43:46.713Z,22.04
2022-07-29T00:44:48.325Z,22.04
2022-07-29T00:45:50.933Z,22.04
2022-07-29T00:46:52.890Z,22.03
2022-07-29T00:47:55.570Z,22.03
2022-07-29T00:48:58.217Z,22.04
2022-07-29T00:49:59.910Z,22.02
2022-07-29T00:51:04.979Z,22.02
2022-07-29T00:52:08.363Z,22.02
2022-07-29T00:53:13.758Z,22.03
2022-07-29T00:54:17.135Z,22.02
2022-07-29T00:55:20.049Z,22.02
2022-07-29T00:56:21.710Z,22.02
2022-07-29T00:57:24.424Z,22.03
2022-07-29T00:58:27.707Z,22.03
2022-07-29T00:59:35.268Z,22.03
2022-07-29T01:00:42.203Z,22.03
2022-07-29T01:01:44.458Z,22.04
2022-07-29T01:02:49.313Z,22.03
2022-07-29T01:03:52.682Z,22.04
2022-07-29T01:04:54.758Z,22.04
2022-07-29T01:05:59.778Z,22.03
2022-07-29T01:07:03.191Z,22.03
2022-07-29T01:08:06.920Z,22.02
2022-07-29T01:09:10.516Z,22.02
2022-07-29T01:10:21.983Z,22.02
2022-07-29T01:11:24.149Z,22.01
2022-07-29T01:12:34.950Z,22.01
2022-07-29T01:13:37.554Z,22.01
2022-07-29T01:14:45.388Z,22.01
2022-07-29T01:15:53.538Z,22.01
2022-07-29T01:17:02.540Z,22.00
2022-07-29T01:18:13.068Z,21.98
2022-07-29T01:19:35.181Z,21.96
2022-07-29T01:21:00.464Z,21.95
2022-07-29T01:22:25.530Z,21.93
2022-07-29T01:23:55.950Z,21.91
2022-07-29T01:25:17.044Z,21.90
2022-07-29T01:26:44.661Z,21.88
2022-07-29T01:28:02.174Z,21.87
2022-07-29T01:29:12.828Z,21.85
2022-07-29T01:30:15.703Z,21.84
2022-07-29T01:31:25.341Z,21.82
2022-07-29T01:32:33.498Z,21.81
2022-07-29T01:33:51.099Z,21.79
2022-07-29T01:34:57.854Z,21.79
2022-07-29T01:36:02.291Z,21.78
2022-07-29T01:37:16.533Z,21.80
2022-07-29T01:38:23.064Z,21.79
2022-07-29T01:39:33.380Z,21.79
2022-07-29T01:40:41.654Z,21.79
2022-07-29T01:41:51.285Z,21.81
2022-07-29T01:42:58.360Z,21.81
2022-07-29T01:44:04.851Z,21.83
2022-07-29T01:45:13.540Z,21.85
2022-07-29T01:46:22.014Z,21.84
2022-07-29T01:47:28.521Z,21.86
2022-07-29T01:48:41.126Z,21.85
2022-07-29T01:49:48.544Z,21.85
2022-07-29T01:50:59.401Z,21.85
2022-07-29T01:52:06.697Z,21.84
2022-07-29T01:53:12.550Z,21.83
2022-07-29T01:54:20.860Z,21.83
2022-07-29T01:55:29.270Z,21.82
2022-07-29T01:56:34.663Z,21.81
2022-07-29T01:57:39.929Z,21.79
2022-07-29T01:58:44.747Z,21.79
2022-07-29T01:59:49.171Z,21.77
2022-07-29T02:00:53.216Z,21.76
2022-07-29T02:01:59.185Z,21.76
2022-07-29T02:03:06.345Z,21.76
2022-07-29T02:04:10.879Z,21.77
2022-07-29T02:05:16.754Z,21.77
2022-07-29T02:06:23.395Z,21.77
2022-07-29T02:07:28.553Z,21.78
2022-07-29T02:08:31.432Z,21.76
2022-07-29T02:09:36.611Z,21.77
2022-07-29T02:10:41.239Z,21.77
2022-07-29T02:11:49.530Z,21.77
2022-07-29T02:12:51.382Z,21.77
2022-07-29T02:13:55.598Z,21.78
2022-07-29T02:15:01.784Z,21.78
2022-07-29T02:16:08.593Z,21.77
2022-07-29T02:17:13.153Z,21.77
2022-07-29T02:18:19.604Z,21.76
2022-07-29T02:19:24.263Z,21.75
2022-07-29T02:20:28.083Z,21.74
2022-07-29T02:21:32.998Z,21.73
2022-07-29T02:22:38.902Z,21.74
2022-07-29T02:23:51.599Z,21.73
2022-07-29T02:24:55.777Z,21.72
2022-07-29T02:25:58.762Z,21.71
2022-07-29T02:27:03.431Z,21.68
2022-07-29T02:28:07.520Z,21.68
2022-07-29T02:29:11.694Z,21.65
2022-07-29T02:30:14.120Z,21.64
2022-07-29T02:31:20.952Z,21.61
2022-07-29T02:32:25.389Z,21.59
2022-07-29T02:33:29.745Z,21.55
2022-07-29T02:34:34.019Z,21.52
2022-07-29T02:35:36.754Z,21.48
2022-07-29T02:36:39.585Z,21.44
2022-07-29T02:37:45.057Z,21.41
2022-07-29T02:38:53.613Z,21.38
2022-07-29T02:39:57.508Z,21.35
2022-07-29T02:41:00.985Z,21.35
2022-07-29T02:42:07.400Z,21.34
2022-07-29T02:43:10.695Z,21.32
2022-07-29T02:44:15.100Z,21.32
2022-07-29T02:45:17.155Z,21.30
2022-07-29T02:46:29.039Z,21.30
2022-07-29T02:47:41.962Z,21.29
2022-07-29T02:48:56.512Z,21.26
2022-07-29T02:50:04.054Z,21.26
2022-07-29T02:51:12.727Z,21.23
2022-07-29T02:52:41.799Z,21.19
2022-07-29T02:53:46.352Z,21.18
2022-07-29T02:54:56.700Z,21.17
2022-07-29T02:56:00.328Z,21.17
2022-07-29T02:57:08.272Z,21.16
2022-07-29T02:58:16.533Z,21.16
2022-07-29T02:59:23.970Z,21.16
2022-07-29T03:00:29.743Z,21.14
2022-07-29T03:01:36.026Z,21.11
2022-07-29T03:02:39.232Z,21.11
2022-07-29T03:03:45.769Z,21.10
2022-07-29T03:04:52.003Z,21.09
2022-07-29T03:05:55.995Z,21.09
2022-07-29T03:07:01.295Z,21.06
2022-07-29T03:08:06.104Z,21.05
2022-07-29T03:09:13.363Z,21.02
2022-07-29T03:10:15.846Z,21.02
2022-07-29T03:11:19.652Z,21.00
2022-07-29T03:12:43.574Z,20.98
2022-07-29T03:13:45.896Z,20.96
2022-07-29T03:14:49.595Z,20.94
2022-07-29T03:15:51.785Z,20.94
2022-07-29T03:16:56.101Z,20.93
2022-07-29T03:17:58.209Z,20.93
2022-07-29T03:19:01.529Z,20.95
2022-07-29T03:20:03.853Z,20.93
2022-07-29T03:21:06.580Z,20.95
2022-07-29T03:22:08.339Z,20.97
2022-07-29T03:23:11.028Z,20.97
2022-07-29T03:24:25.923Z,20.97
2022-07-29T03:25:28.995Z,20.95
2022-07-29T03:26:30.734Z,20.94
2022-07-29T03:27:33.703Z,20.94
2022-07-29T03:28:35.364Z,20.94
2022-07-29T03:29:39.512Z,20.95
2022-07-29T03:30:41.611Z,20.93
2022-07-29T03:31:47.138Z,20.92
2022-07-29T03:32:53.725Z,20.85
2022-07-29T03:33:55.560Z,20.69
2022-07-29T03:34:58.091Z,20.47
2022-07-29T03:35:59.967Z,20.24
2022-07-29T03:37:07.073Z,20.05
2022-07-29T03:38:09.108Z,19.90
2022-07-29T03:39:14.528Z,19.74
2022-07-29T03:40:23.172Z,19.58
2022-07-29T03:41:27.136Z,19.51
2022-07-29T03:42:34.493Z,19.44
2022-07-29T03:43:39.607Z,19.36
2022-07-29T03:44:53.508Z,19.32
2022-07-29T03:45:57.255Z,19.18
2022-07-29T03:47:03.731Z,18.93
2022-07-29T03:48:09.678Z,18.64
2022-07-29T03:49:14.491Z,18.40
2022-07-29T03:50:17.064Z,18.20
2022-07-29T03:51:19.785Z,18.08
2022-07-29T03:52:37.523Z,17.93
2022-07-29T03:53:39.141Z,17.87
2022-07-29T03:54:41.813Z,17.84
2022-07-29T03:55:46.095Z,17.81
2022-07-29T03:56:51.162Z,17.76
2022-07-29T03:57:53.526Z,17.74
2022-07-29T03:58:57.155Z,17.69
2022-07-29T04:00:00.536Z,17.60
2022-07-29T04:01:02.801Z,17.50
2022-07-29T04:02:07.133Z,17.40
2022-07-29T04:03:11.776Z,17.34
2022-07-29T04:04:15.238Z,17.32
2022-07-29T04:05:19.457Z,17.30
2022-07-29T04:06:22.096Z,17.29
2022-07-29T04:07:23.723Z,17.24
2022-07-29T04:08:26.383Z,17.17
2022-07-29T04:09:28.019Z,17.15
2022-07-29T04:10:32.204Z,17.12
2022-07-29T04:11:57.089Z,17.13
2022-07-29T04:13:00.596Z,17.14
2022-07-29T04:14:02.647Z,17.13
2022-07-29T04:15:05.641Z,17.15
2022-07-29T04:16:07.332Z,17.21
2022-07-29T04:17:09.982Z,17.27
2022-07-29T04:18:13.001Z,17.31
2022-07-29T04:19:15.749Z,17.36
2022-07-29T04:20:17.609Z,17.40
2022-07-29T04:21:20.170Z,17.46
2022-07-29T04:22:21.762Z,17.52
2022-07-29T04:23:25.593Z,17.58
2022-07-29T04:24:27.813Z,17.62
2022-07-29T04:25:30.513Z,17.64
2022-07-29T04:26:32.155Z,17.68
2022-07-29T04:27:34.686Z,17.69
2022-07-29T04:28:36.407Z,17.69
2022-07-29T04:29:57.032Z,17.70
2022-07-29T04:30:59.240Z,17.74
2022-07-29T04:32:01.809Z,17.77
2022-07-29T04:33:05.523Z,17.77
2022-07-29T04:34:09.932Z,17.77
2022-07-29T04:35:11.711Z,17.77
2022-07-29T04:36:28.831Z,17.77
2022-07-29T04:37:31.249Z,17.77
2022-07-29T04:38:33.949Z,17.79
2022-07-29T04:39:35.508Z,17.84
2022-07-29T04:40:38.497Z,17.88
2022-07-29T04:41:40.413Z,17.92
2022-07-29T04:42:46.657Z,17.94
2022-07-29T04:43:49.593Z,17.96
2022-07-29T04:44:52.435Z,17.94
2022-07-29T04:45:54.276Z,17.93
2022-07-29T04:46:58.500Z,17.94
2022-07-29T04:48:00.107Z,17.92
2022-07-29T04:49:02.799Z,17.89
2022-07-29T04:50:08.008Z,17.88
2022-07-29T04:51:10.645Z,17.87
2022-07-29T04:52:12.197Z,17.86
2022-07-29T04:53:14.791Z,17.86
2022-07-29T04:54:16.906Z,17.88
2022-07-29T04:55:19.811Z,17.89
2022-07-29T04:56:21.620Z,17.92
2022-07-29T04:57:24.609Z,17.95
2022-07-29T04:58:27.335Z,17.97
2022-07-29T04:59:29.107Z,17.98
2022-07-29T05:00:33.257Z,17.99
2022-07-29T05:01:35.538Z,17.99
2022-07-29T05:02:38.230Z,18.00
2022-07-29T05:03:40.851Z,18.02
2022-07-29T05:04:42.572Z,18.02
2022-07-29T05:05:46.493Z,18.01
2022-07-29T05:06:49.300Z,18.01
2022-07-29T05:07:50.851Z,18.03
2022-07-29T05:08:53.435Z,18.03
2022-07-29T05:09:57.744Z,18.05
2022-07-29T05:11:11.638Z,18.06
2022-07-29T05:12:14.593Z,18.08
2022-07-29T05:13:17.313Z,18.12
2022-07-29T05:14:19.488Z,18.14
2022-07-29T05:15:22.636Z,18.17
2022-07-29T05:16:24.348Z,18.19
2022-07-29T05:17:27.455Z,18.21
2022-07-29T05:18:29.339Z,18.23
2022-07-29T05:19:32.491Z,18.26
2022-07-29T05:20:35.125Z,18.29
2022-07-29T05:21:39.130Z,18.31
2022-07-29T05:22:40.744Z,18.34
2022-07-29T05:23:43.265Z,18.37
2022-07-29T05:24:44.910Z,18.39
2022-07-29T05:25:47.947Z,18.41
2022-07-29T05:26:49.560Z,18.45
2022-07-29T05:27:52.176Z,18.46
2022-07-29T05:28:54.790Z,18.46
2022-07-29T05:29:57.373Z,18.47
2022-07-29T05:30:59.051Z,18.49
2022-07-29T05:32:01.567Z,18.49
2022-07-29T05:33:03.236Z,18.50
2022-07-29T05:34:05.961Z,18.53
2022-07-29T05:35:08.714Z,18.52
2022-07-29T05:36:11.269Z,18.53
2022-07-29T05:37:14.372Z,18.54
2022-07-29T05:38:17.033Z,18.56
2022-07-29T05:39:18.878Z,18.60
2022-07-29T05:40:22.263Z,18.63
2022-07-29T05:41:24.192Z,18.64
2022-07-29T05:42:27.130Z,18.68
2022-07-29T05:43:30.164Z,18.70
2022-07-29T05:44:32.787Z,18.75
2022-07-29T05:45:34.604Z,18.78
2022-07-29T05:46:52.062Z,18.81
2022-07-29T05:47:53.640Z,18.82
2022-07-29T05:48:56.767Z,18.82
2022-07-29T05:49:58.611Z,18.84
2022-07-29T05:51:01.142Z,18.87
2022-07-29T05:52:02.937Z,18.89
2022-07-29T05:53:18.944Z,18.92
2022-07-29T05:54:22.864Z,18.96
2022-07-29T05:55:24.784Z,18.98
2022-07-29T05:56:27.615Z,19.00
2022-07-29T05:57:29.291Z,19.01
2022-07-29T05:58:31.863Z,19.04
2022-07-29T05:59:37.704Z,19.07
2022-07-29T06:00:39.552Z,19.08
2022-07-29T06:01:42.606Z,19.10
2022-07-29T06:02:44.323Z,19.13
2022-07-29T06:03:46.998Z,19.14
2022-07-29T06:04:49.669Z,19.15
2022-07-29T06:05:52.311Z,19.18
2022-07-29T06:06:53.871Z,19.19
2022-07-29T06:07:56.407Z,19.21
2022-07-29T06:08:59.308Z,19.21
2022-07-29T06:10:02.400Z,19.27
2022-07-29T06:11:05.320Z,19.30
2022-07-29T06:12:08.113Z,19.33
2022-07-29T06:13:09.889Z,19.35
2022-07-29T06:14:12.608Z,19.38
2022-07-29T06:15:14.518Z,19.44
2022-07-29T06:16:28.803Z,19.48
2022-07-29T06:17:32.957Z,19.54
2022-07-29T06:18:34.663Z,19.58
2022-07-29T06:19:37.444Z,19.59
2022-07-29T06:20:39.291Z,19.62
2022-07-29T06:21:44.437Z,19.62
2022-07-29T06:22:46.272Z,19.61
2022-07-29T06:23:49.026Z,19.59
2022-07-29T06:24:51.955Z,19.57
2022-07-29T06:25:54.701Z,19.58
2022-07-29T06:26:56.860Z,19.55
2022-07-29T06:27:59.930Z,19.54
2022-07-29T06:29:02.546Z,19.54
2022-07-29T06:30:07.570Z,19.53
2022-07-29T06:31:09.326Z,19.53
2022-07-29T06:32:13.005Z,19.54
2022-07-29T06:33:17.870Z,19.55
2022-07-29T06:34:20.640Z,19.54
2022-07-29T06:35:37.768Z,19.54
2022-07-29T06:36:42.540Z,19.55
2022-07-29T06:37:44.489Z,19.57
2022-07-29T06:38:51.403Z,19.58
2022-07-29T06:40:10.119Z,19.60
2022-07-29T06:41:13.476Z,19.59
2022-07-29T06:42:15.168Z,19.60
2022-07-29T06:43:17.721Z,19.58
2022-07-29T06:44:20.289Z,19.59
2022-07-29T06:45:23.051Z,19.57
2022-07-29T06:46:24.858Z,19.55
2022-07-29T06:47:27.448Z,19.55
2022-07-29T06:48:29.638Z,19.54
2022-07-29T06:49:32.319Z,19.55
2022-07-29T06:50:33.951Z,19.58
2022-07-29T06:51:36.909Z,19.58
2022-07-29T06:52:38.671Z,19.57
2022-07-29T06:53:58.087Z,19.59
2022-07-29T06:55:03.082Z,19.59
2022-07-29T06:56:09.136Z,19.60
2022-07-29T06:57:11.714Z,19.61
2022-07-29T06:58:15.069Z,19.62
2022-07-29T06:59:17.683Z,19.64
2022-07-29T07:00:19.425Z,19.65
2022-07-29T07:01:22.142Z,19.67
2022-07-29T07:02:24.293Z,19.68
2022-07-29T07:03:27.371Z,19.69
2022-07-29T07:04:29.945Z,19.70
2022-07-29T07:05:31.581Z,19.74
2022-07-29T07:06:34.238Z,19.75
2022-07-29T07:07:35.868Z,19.77
2022-07-29T07:08:38.566Z,19.79
2022-07-29T07:09:41.010Z,19.81
2022-07-29T07:10:45.253Z,19.84
2022-07-29T07:11:49.632Z,19.86
2022-07-29T07:12:51.897Z,19.87
2022-07-29T07:13:57.025Z,19.91
2022-07-29T07:17:25.175Z,19.94
2022-07-29T07:18:28.666Z,19.94
2022-07-29T07:19:30.277Z,19.94
2022-07-29T07:20:33.277Z,19.96
2022-07-29T07:21:36.320Z,19.97
2022-07-29T07:22:39.037Z,19.96
2022-07-29T07:23:41.694Z,19.99
2022-07-29T07:24:43.287Z,19.99
2022-07-29T07:25:47.285Z,20.01
2022-07-29T07:26:49.885Z,20.03
2022-07-29T07:27:52.664Z,20.05
2022-07-29T07:28:55.530Z,20.04
2022-07-29T07:29:57.626Z,20.04
2022-07-29T07:31:00.284Z,20.04
2022-07-29T07:32:02.993Z,20.04
2022-07-29T07:33:07.290Z,20.03
2022-07-29T07:34:09.059Z,20.04
2022-07-29T07:35:12.666Z,20.04
2022-07-29T07:36:14.448Z,20.05
2022-07-29T07:37:17.004Z,20.07
2022-07-29T07:38:19.697Z,20.09
2022-07-29T07:39:21.381Z,20.11
2022-07-29T07:40:24.241Z,20.11
2022-07-29T07:41:28.325Z,20.13
2022-07-29T07:42:34.174Z,20.14
2022-07-29T07:43:37.130Z,20.17
2022-07-29T07:44:57.338Z,20.18
2022-07-29T07:46:01.948Z,20.19
2022-07-29T07:47:12.318Z,20.19
2022-07-29T07:48:15.268Z,20.22
2022-07-29T07:49:17.014Z,20.22
2022-07-29T07:50:19.651Z,20.23
2022-07-29T07:51:21.477Z,20.26
2022-07-29T07:52:24.096Z,20.27
2022-07-29T07:53:25.821Z,20.31
2022-07-29T07:54:28.534Z,20.33
2022-07-29T07:55:47.558Z,20.35
2022-07-29T07:56:54.090Z,20.36
2022-07-29T07:57:57.182Z,20.38
2022-07-29T07:58:58.875Z,20.39
2022-07-29T08:00:02.102Z,20.39
2022-07-29T08:01:07.220Z,20.40
2022-07-29T08:02:11.355Z,20.42
2022-07-29T08:03:17.153Z,20.43
2022-07-29T08:04:25.015Z,20.43
2022-07-29T08:05:30.174Z,20.43
2022-07-29T08:06:32.080Z,20.42
2022-07-29T08:07:34.797Z,20.41
2022-07-29T08:08:38.527Z,20.40
2022-07-29T08:09:40.189Z,20.40
2022-07-29T08:10:56.723Z,20.40
2022-07-29T08:11:59.916Z,20.40
2022-07-29T08:13:04.035Z,20.39
2022-07-29T08:14:05.635Z,20.41
2022-07-29T08:15:09.727Z,20.40
2022-07-29T08:16:15.814Z,20.40
2022-07-29T08:17:18.438Z,20.41
2022-07-29T08:18:20.237Z,20.41
2022-07-29T08:19:22.981Z,20.41
2022-07-29T08:20:27.283Z,20.39
2022-07-29T08:21:28.907Z,20.38
2022-07-29T08:22:31.508Z,20.38
2022-07-29T08:23:46.831Z,20.38
2022-07-29T08:24:55.637Z,20.37
2022-07-29T08:25:57.461Z,20.37
2022-07-29T08:27:01.362Z,20.37
2022-07-29T08:28:03.262Z,20.36
2022-07-29T08:29:05.849Z,20.36
2022-07-29T08:30:08.453Z,20.34
2022-07-29T08:31:11.080Z,20.33
2022-07-29T08:32:12.847Z,20.31
2022-07-29T08:33:16.877Z,20.31
2022-07-29T08:34:19.692Z,20.32
2022-07-29T08:35:35.104Z,20.38
2022-07-29T08:36:38.062Z,20.45
2022-07-29T08:37:40.665Z,20.53
2022-07-29T08:38:42.244Z,20.61
2022-07-29T08:39:44.848Z,20.68
2022-07-29T08:40:47.317Z,20.75
2022-07-29T08:41:56.888Z,20.83
2022-07-29T08:43:04.981Z,20.89
2022-07-29T08:44:09.254Z,20.97
2022-07-29T08:45:11.439Z,21.04
2022-07-29T08:46:15.059Z,21.08
2022-07-29T08:47:18.078Z,21.12
2022-07-29T08:48:23.122Z,21.16
2022-07-29T08:49:26.281Z,21.15
2022-07-29T08:50:28.027Z,21.15
2022-07-29T08:51:32.566Z,21.15
2022-07-29T08:52:37.593Z,21.13
2022-07-29T08:53:43.999Z,21.13
2022-07-29T08:54:47.270Z,21.13
2022-07-29T08:55:50.964Z,21.07
2022-07-29T08:56:54.897Z,21.02
2022-07-29T08:57:58.237Z,21.00
2022-07-29T08:59:05.427Z,20.97
2022-07-29T09:00:11.610Z,20.93
2022-07-29T09:01:19.564Z,20.92
2022-07-29T09:02:28.249Z,20.93
2022-07-29T09:03:32.653Z,20.89
2022-07-29T09:04:37.901Z,20.86
2022-07-29T09:05:47.513Z,20.82
2022-07-29T09:06:53.782Z,20.82
2022-07-29T09:07:56.239Z,20.84
2022-07-29T09:09:01.120Z,20.89
2022-07-29T09:10:05.667Z,20.91
2022-07-29T09:11:08.362Z,20.95
2022-07-29T09:12:12.338Z,21.01
2022-07-29T09:13:13.907Z,21.06
2022-07-29T09:14:17.923Z,21.11
2022-07-29T09:15:19.561Z,21.11
2022-07-29T09:16:43.715Z,21.13
2022-07-29T09:17:48.469Z,21.10
2022-07-29T09:18:50.095Z,21.18
2022-07-29T09:19:53.385Z,21.24
2022-07-29T09:21:13.703Z,21.29
2022-07-29T09:22:31.041Z,21.32
2022-07-29T09:23:32.645Z,21.36
2022-07-29T09:24:40.525Z,21.40
2022-07-29T09:25:42.655Z,21.43
2022-07-29T09:26:47.629Z,21.44
2022-07-29T09:27:52.619Z,21.43
2022-07-29T09:28:54.396Z,21.45
2022-07-29T09:30:06.185Z,21.52
2022-07-29T09:31:09.245Z,21.59
2022-07-29T09:32:12.364Z,21.67
2022-07-29T09:33:14.931Z,21.72
2022-07-29T09:34:18.071Z,21.73
2022-07-29T09:35:23.030Z,21.76
2022-07-29T09:36:24.878Z,21.83
2022-07-29T09:37:28.591Z,21.91
2022-07-29T09:38:31.397Z,21.97
2022-07-29T09:39:36.909Z,21.97
2022-07-29T09:40:38.684Z,22.00
2022-07-29T09:41:50.190Z,22.04
2022-07-29T09:42:53.772Z,22.08
2022-07-29T09:43:57.976Z,22.12
2022-07-29T09:45:01.895Z,22.13
2022-07-29T09:46:13.841Z,22.12
2022-07-29T09:47:17.470Z,22.10
2022-07-29T09:48:20.930Z,22.08
2022-07-29T09:49:23.598Z,22.06
2022-07-29T09:50:37.266Z,22.05
2022-07-29T09:51:41.260Z,22.04
2022-07-29T09:52:49.211Z,22.03
2022-07-29T09:53:53.115Z,22.00
2022-07-29T09:55:07.137Z,22.00
2022-07-29T09:56:11.561Z,22.05
2022-07-29T09:57:30.361Z,22.09
2022-07-29T09:58:34.539Z,22.12
2022-07-29T09:59:36.281Z,22.12
2022-07-29T10:00:56.434Z,22.14
2022-07-29T10:01:58.656Z,22.17
2022-07-29T10:03:03.754Z,22.21
2022-07-29T10:04:06.717Z,22.27
2022-07-29T10:05:21.095Z,22.32
2022-07-29T10:06:22.817Z,22.34
2022-07-29T10:07:26.225Z,22.39
2022-07-29T10:08:27.985Z,22.44
2022-07-29T10:09:30.631Z,22.50
2022-07-29T10:10:35.135Z,22.59
2022-07-29T10:11:49.642Z,22.66
2022-07-29T10:12:55.296Z,22.74
2022-07-29T10:13:57.136Z,22.80
2022-07-29T10:15:00.023Z,22.86
2022-07-29T10:16:03.681Z,22.88
2022-07-29T10:17:08.217Z,22.86
2022-07-29T10:18:11.810Z,22.84
2022-07-29T10:19:14.668Z,22.87
2022-07-29T10:20:18.040Z,22.89
2022-07-29T10:21:34.742Z,22.94
2022-07-29T10:22:54.727Z,22.98
2022-07-29T10:24:01.106Z,23.03
2022-07-29T10:25:04.518Z,23.03
2022-07-29T10:26:07.141Z,23.00
2022-07-29T10:27:10.525Z,23.00
2022-07-29T10:28:16.256Z,23.01
2022-07-29T10:29:18.669Z,23.01
2022-07-29T10:30:25.716Z,23.00
2022-07-29T10:31:37.697Z,22.96
2022-07-29T10:32:54.314Z,22.89
2022-07-29T10:34:09.760Z,22.87
2022-07-29T10:35:33.126Z,22.86
2022-07-29T10:36:48.519Z,22.84
2022-07-29T10:38:06.287Z,22.84
2022-07-29T10:39:22.373Z,22.84
2022-07-29T10:40:49.100Z,22.84
2022-07-29T10:42:03.648Z,22.80
2022-07-29T10:43:18.465Z,22.76
2022-07-29T10:44:24.725Z,22.71
2022-07-29T10:45:27.012Z,22.69
2022-07-29T10:46:38.226Z,22.67
2022-07-29T10:47:41.777Z,22.67
2022-07-29T10:49:08.049Z,22.66
2022-07-29T10:50:16.915Z,22.66
2022-07-29T10:51:19.623Z,22.64
2022-07-29T10:52:26.594Z,22.64
2022-07-29T10:53:48.332Z,22.65
2022-07-29T10:54:52.527Z,22.67
2022-07-29T10:55:55.266Z,22.66
2022-07-29T10:57:12.531Z,22.69
2022-07-29T10:58:20.796Z,22.75
2022-07-29T10:59:32.310Z,22.82
2022-07-29T11:00:39.194Z,22.88
2022-07-29T11:03:10.536Z,23.02
2022-07-29T11:04:12.918Z,23.09
2022-07-29T11:05:19.933Z,23.16
2022-07-29T11:06:26.883Z,23.21
2022-07-29T11:07:41.606Z,23.25
2022-07-29T11:09:20.166Z,23.30
2022-07-29T11:10:26.967Z,23.36
2022-07-29T11:11:35.178Z,23.43
2022-07-29T11:12:50.581Z,23.55
2022-07-29T11:13:54.093Z,23.64
2022-07-29T11:14:58.939Z,23.73
2022-07-29T11:16:01.582Z,23.79
2022-07-29T11:17:06.979Z,23.84
2022-07-29T11:18:14.942Z,23.88
2022-07-29T11:19:26.698Z,23.93
2022-07-29T11:20:34.813Z,23.94
2022-07-29T11:21:53.680Z,23.98
2022-07-29T11:22:58.530Z,23.99
2022-07-29T11:24:14.749Z,24.02
2022-07-29T11:25:51.013Z,24.06
2022-07-29T11:26:45.089Z,24.12
2022-07-29T11:27:49.728Z,24.18
2022-07-29T11:28:56.129Z,24.24
2022-07-29T11:30:02.294Z,24.31
2022-07-29T11:31:06.323Z,24.38
2022-07-29T11:32:22.563Z,24.44
2022-07-29T11:33:54.423Z,24.47
2022-07-29T11:35:17.414Z,24.51
2022-07-29T11:36:20.001Z,24.60
2022-07-29T11:37:30.967Z,24.62
2022-07-29T11:38:33.877Z,24.62
2022-07-29T11:39:37.686Z,24.63
2022-07-29T11:40:40.373Z,24.65
2022-07-29T11:41:44.251Z,24.68
2022-07-29T11:42:48.160Z,24.69
2022-07-29T11:43:55.885Z,24.68
2022-07-29T11:44:58.889Z,24.68
2022-07-29T11:46:07.049Z,24.69
2022-07-29T11:47:13.454Z,24.72
2022-07-29T11:48:29.411Z,24.76
2022-07-29T11:49:35.011Z,24.78
2022-07-29T11:50:44.257Z,24.78
2022-07-29T11:51:52.588Z,24.78
2022-07-29T11:52:54.973Z,24.79
2022-07-29T11:54:04.471Z,24.83
2022-07-29T11:55:09.901Z,24.85
2022-07-29T11:56:17.198Z,24.85
2022-07-29T11:57:21.340Z,24.86
2022-07-29T11:58:25.121Z,24.88
2022-07-29T11:59:49.578Z,24.91
2022-07-29T12:02:37.292Z,24.95
2022-07-29T12:03:39.303Z,24.96
2022-07-29T12:04:49.519Z,24.96
2022-07-29T12:05:53.256Z,24.92
2022-07-29T12:06:56.194Z,24.88
2022-07-29T12:08:07.205Z,24.85
2022-07-29T12:09:18.550Z,24.80
2022-07-29T12:10:29.984Z,24.76
2022-07-29T12:11:33.537Z,24.75
2022-07-29T12:12:35.407Z,24.77
2022-07-29T12:13:41.030Z,24.77
2022-07-29T12:14:46.477Z,24.76
2022-07-29T12:15:59.723Z,24.73
2022-07-29T12:17:01.985Z,24.71
2022-07-29T12:18:18.321Z,24.70
2022-07-29T12:19:20.275Z,24.71
2022-07-29T12:20:27.415Z,24.73
2022-07-29T12:21:31.053Z,24.72
2022-07-29T12:22:34.978Z,24.75
2022-07-29T12:23:37.580Z,24.76
2022-07-29T12:24:44.902Z,24.72
2022-07-29T12:25:50.004Z,24.68
2022-07-29T12:26:52.299Z,24.63
2022-07-29T12:28:02.005Z,24.63
2022-07-29T12:29:11.431Z,24.65
2022-07-29T12:30:17.608Z,24.68
2022-07-29T12:31:42.835Z,24.73
2022-07-29T12:32:47.061Z,24.76
2022-07-29T12:33:55.805Z,24.79
2022-07-29T12:35:00.973Z,24.84
2022-07-29T12:36:06.949Z,24.88
2022-07-29T12:37:11.077Z,24.94
2022-07-29T12:38:14.178Z,24.99
2022-07-29T12:39:18.051Z,25.01
2022-07-29T12:40:21.826Z,25.03
2022-07-29T12:41:24.475Z,25.04
2022-07-29T12:42:26.235Z,25.05
2022-07-29T12:43:28.898Z,25.06
2022-07-29T12:44:44.858Z,25.07
2022-07-29T12:45:49.212Z,25.06
2022-07-29T12:47:03.897Z,25.02
2022-07-29T12:48:09.420Z,25.02
2022-07-29T12:49:23.175Z,25.00
2022-07-29T12:50:26.572Z,24.99
2022-07-29T12:51:33.213Z,25.02
2022-07-29T12:52:35.672Z,25.04
2022-07-29T12:53:38.835Z,25.03
2022-07-29T12:54:48.026Z,25.03
2022-07-29T12:55:53.236Z,25.04
2022-07-29T12:57:00.442Z,25.03
2022-07-29T12:58:03.458Z,25.04
2022-07-29T12:59:15.420Z,25.02
2022-07-29T13:00:18.642Z,25.02
2022-07-29T13:01:21.767Z,25.02
2022-07-29T13:02:23.717Z,25.00
2022-07-29T13:03:26.418Z,24.97
2022-07-29T13:04:32.761Z,24.93
2022-07-29T13:05:44.553Z,24.93
2022-07-29T13:06:49.789Z,24.91
2022-07-29T13:07:55.791Z,24.91
2022-07-29T13:09:08.892Z,24.93
2022-07-29T13:10:14.188Z,24.93
2022-07-29T13:11:29.425Z,24.88
2022-07-29T13:12:33.311Z,24.86
2022-07-29T13:13:34.922Z,24.82
2022-07-29T13:14:39.898Z,24.79
2022-07-29T13:15:43.178Z,24.77
2022-07-29T13:17:07.092Z,24.74
2022-07-29T13:18:30.537Z,24.73
2022-07-29T13:19:38.707Z,24.68
2022-07-29T13:20:41.297Z,24.64
2022-07-29T13:21:43.458Z,24.62
2022-07-29T13:22:50.187Z,24.59
2022-07-29T13:23:51.796Z,24.58
2022-07-29T13:24:56.760Z,24.58
2022-07-29T13:26:06.505Z,24.59
2022-07-29T13:27:09.223Z,24.60
2022-07-29T13:28:12.591Z,24.61
2022-07-29T13:29:14.737Z,24.60
2022-07-29T13:30:17.496Z,24.58
2022-07-29T13:31:19.283Z,24.56
2022-07-29T13:32:28.735Z,24.55
2022-07-29T13:33:31.174Z,24.58
2022-07-29T13:34:33.701Z,24.58
2022-07-29T13:35:39.923Z,24.59
2022-07-29T13:36:41.930Z,24.59
2022-07-29T13:37:44.556Z,24.59
2022-07-29T13:38:46.219Z,24.60
2022-07-29T13:39:52.798Z,24.63
2022-07-29T13:40:55.672Z,24.64
2022-07-29T13:41:57.794Z,24.62
2022-07-29T13:43:00.521Z,24.64
2022-07-29T13:44:02.096Z,24.65
2022-07-29T13:45:05.941Z,24.68
2022-07-29T13:46:07.632Z,24.68
2022-07-29T13:47:10.648Z,24.69
2022-07-29T13:48:13.248Z,24.70
2022-07-29T13:49:15.884Z,24.72
2022-07-29T13:50:18.535Z,24.75
2022-07-29T13:51:22.501Z,24.77
2022-07-29T13:52:24.132Z,24.79
2022-07-29T13:53:28.716Z,24.81
2022-07-29T13:54:30.355Z,24.78
2022-07-29T13:55:32.943Z,24.80
2022-07-29T13:56:35.974Z,24.79
2022-07-29T13:57:38.490Z,24.79
2022-07-29T13:58:41.142Z,24.78
2022-07-29T13:59:43.466Z,24.78
2022-07-29T14:00:47.522Z,24.79
2022-07-29T14:01:50.111Z,24.80
2022-07-29T14:02:51.701Z,24.82
2022-07-29T14:03:54.309Z,24.83
2022-07-29T14:04:58.627Z,24.83
2022-07-29T14:06:00.935Z,24.85
2022-07-29T14:07:05.736Z,24.86
2022-07-29T14:08:08.499Z,24.86
2022-07-29T14:09:10.101Z,24.90